createdAt,value
2022-12-14T00:01:54.374Z,91.58
2022-12-14T00:06:56.147Z,91.43
2022-12-14T00:11:58.808Z,90.66
2022-12-14T00:17:00.681Z,90.11
2022-12-14T00:22:02.432Z,89.93
2022-12-14T00:27:04.277Z,90.29
2022-12-14T00:32:06.450Z,90.54
2022-12-14T00:37:11.170Z,90.75
2022-12-14T00:42:12.910Z,90.82
2022-12-14T00:47:14.754Z,90.78
2022-12-14T00:52:16.515Z,90.74
2022-12-14T00:57:18.287Z,90.93
2022-12-14T01:02:20.187Z,91.28
2022-12-14T01:07:22.081Z,91.27
2022-12-14T01:12:23.881Z,91.21
2022-12-14T01:17:25.611Z,91.46
2022-12-14T01:22:27.461Z,91.68
2022-12-14T01:27:29.421Z,91.66
2022-12-14T01:32:31.255Z,91.64
2022-12-14T01:37:33.002Z,91.64
2022-12-14T01:42:36.546Z,91.70
2022-12-14T01:47:43.185Z,91.32
2022-12-14T01:52:47.861Z,91.28
2022-12-14T01:58:15.401Z,90.69
2022-12-14T02:03:38.228Z,91.07
2022-12-14T02:08:43.440Z,91.18
2022-12-14T02:13:45.260Z,91.37
2022-12-14T02:18:50.746Z,91.30
2022-12-14T02:24:20.078Z,91.23
2022-12-14T02:29:43.491Z,90.79
2022-12-14T02:35:18.804Z,90.50
2022-12-14T02:40:32.652Z,89.61
2022-12-14T02:46:03.446Z,89.79
2022-12-14T02:51:49.932Z,90.10
2022-12-14T02:56:59.689Z,90.58
2022-12-14T03:02:03.703Z,89.83
2022-12-14T03:07:34.208Z,89.79
2022-12-14T03:12:40.367Z,90.54
2022-12-14T03:17:46.551Z,90.41
2022-12-14T03:22:59.022Z,90.60
2022-12-14T03:28:14.443Z,90.83
2022-12-14T03:33:20.187Z,90.47
2022-12-14T03:38:37.939Z,90.29
2022-12-14T03:44:17.367Z,90.77
2022-12-14T03:49:32.824Z,90.64
2022-12-14T03:54:53.724Z,90.85
2022-12-14T04:00:13.087Z,90.78
2022-12-14T04:05:30.291Z,90.15
2022-12-14T04:10:58.818Z,90.06
2022-12-14T04:16:25.851Z,90.89
2022-12-14T04:21:40.101Z,90.87
2022-12-14T04:26:54.673Z,89.94
2022-12-14T04:32:25.845Z,88.65
2022-12-14T04:37:29.043Z,87.86
2022-12-14T04:42:41.616Z,87.70
2022-12-14T04:47:51.408Z,87.34
2022-12-14T04:53:01.782Z,87.38
2022-12-14T04:58:24.609Z,88.12
2022-12-14T05:03:32.244Z,88.13
2022-12-14T05:08:52.351Z,87.71
2022-12-14T05:13:54.021Z,87.35
2022-12-14T05:18:55.789Z,88.05
2022-12-14T05:23:59.856Z,87.98
2022-12-14T05:29:01.690Z,86.43
2022-12-14T05:34:03.899Z,87.41
2022-12-14T05:39:06.073Z,88.07
2022-12-14T05:44:07.865Z,87.25
2022-12-14T05:49:09.981Z,87.87
2022-12-14T05:54:11.859Z,87.08
2022-12-14T05:59:15.852Z,87.66
2022-12-14T06:04:18.850Z,88.25
2022-12-14T06:09:20.801Z,88.50
2022-12-14T06:14:24.499Z,87.96
2022-12-14T06:19:26.241Z,87.38
2022-12-14T06:24:28.083Z,87.55
2022-12-14T06:29:29.889Z,88.38
2022-12-14T06:34:35.353Z,87.03
2022-12-14T06:39:40.442Z,87.15
2022-12-14T06:44:42.254Z,87.47
2022-12-14T06:49:44.629Z,88.94
2022-12-14T06:54:47.113Z,88.26
2022-12-14T06:59:48.860Z,88.36
2022-12-14T07:04:50.627Z,88.87
2022-12-14T07:09:52.498Z,88.35
2022-12-14T07:14:55.313Z,87.75
2022-12-14T07:19:57.277Z,87.70
2022-12-14T07:24:59.138Z,87.99
2022-12-14T07:30:01.014Z,87.90
2022-12-14T07:35:02.844Z,88.79
2022-12-14T07:40:05.356Z,87.97
2022-12-14T07:45:07.506Z,88.62
2022-12-14T07:50:09.517Z,88.19
2022-12-14T07:55:11.431Z,89.32
2022-12-14T08:00:13.786Z,88.14
2022-12-14T08:05:16.376Z,85.57
2022-12-14T08:10:18.218Z,86.48
2022-12-14T08:15:19.985Z,84.81
2022-12-14T08:20:21.756Z,86.78
2022-12-14T08:25:23.563Z,87.37
2022-12-14T08:30:25.429Z,85.39
2022-12-14T08:35:27.259Z,82.88
2022-12-14T08:40:29.681Z,86.96
2022-12-14T08:45:31.785Z,88.98
2022-12-14T08:50:33.595Z,89.96
2022-12-14T08:55:38.795Z,86.98
2022-12-14T09:00:40.856Z,84.26
2022-12-14T09:05:42.668Z,82.65
2022-12-14T09:10:50.744Z,82.66
2022-12-14T09:16:18.095Z,85.24
2022-12-14T09:21:20.113Z,85.98
2022-12-14T09:26:25.260Z,88.39
2022-12-14T09:31:27.995Z,88.53
2022-12-14T09:36:29.967Z,89.40
2022-12-14T09:41:34.812Z,91.09
2022-12-14T09:46:52.580Z,91.58
2022-12-14T09:51:57.285Z,89.18
2022-12-14T09:57:04.752Z,86.66
2022-12-14T10:02:40.302Z,86.63
2022-12-14T10:07:51.537Z,87.47
2022-12-14T10:13:13.453Z,84.25
2022-12-14T10:19:00.606Z,80.72
2022-12-14T10:24:06.400Z,79.00
2022-12-14T10:29:14.500Z,78.44
2022-12-14T10:34:24.763Z,77.98
2022-12-14T10:39:40.118Z,75.19
2022-12-14T10:45:23.331Z,74.55
2022-12-14T10:50:32.622Z,72.08
2022-12-14T10:55:40.158Z,72.86
2022-12-14T11:00:42.160Z,76.43
2022-12-14T11:06:03.927Z,73.04
2022-12-14T11:11:18.644Z,78.81
2022-12-14T11:16:36.501Z,77.99
2022-12-14T11:21:39.200Z,82.23
2022-12-14T11:26:42.945Z,79.98
2022-12-14T11:31:47.874Z,79.85
2022-12-14T11:36:50.243Z,82.07
2022-12-14T11:42:02.075Z,83.66
2022-12-14T11:47:13.238Z,75.84
2022-12-14T11:52:18.336Z,76.01
2022-12-14T11:57:30.947Z,72.89
2022-12-14T12:02:38.336Z,75.64
2022-12-14T12:07:56.851Z,76.41
2022-12-14T12:13:01.480Z,71.98
2022-12-14T12:18:17.106Z,74.71
2022-12-14T12:23:27.569Z,71.42
2022-12-14T12:28:35.715Z,72.24
2022-12-14T12:33:46.672Z,71.29
2022-12-14T12:39:24.902Z,70.42
2022-12-14T12:45:08.201Z,74.84
2022-12-14T12:50:32.154Z,71.34
2022-12-14T12:56:08.544Z,72.61
2022-12-14T13:01:42.487Z,73.21
2022-12-14T13:06:55.760Z,72.25
2022-12-14T13:11:58.598Z,75.44
2022-12-14T13:17:05.371Z,76.36
2022-12-14T13:22:15.125Z,77.61
2022-12-14T13:27:44.434Z,74.59
2022-12-14T13:32:55.733Z,71.71
2022-12-14T13:38:12.871Z,72.12
2022-12-14T13:44:08.201Z,72.41
2022-12-14T13:49:21.852Z,69.64
2022-12-14T13:54:30.471Z,72.10
2022-12-14T13:59:45.924Z,71.66
2022-12-14T14:04:47.735Z,72.99
2022-12-14T14:09:55.915Z,73.32
2022-12-14T14:15:07.931Z,73.40
2022-12-14T14:20:47.040Z,70.93
2022-12-14T14:25:48.891Z,71.17
2022-12-14T14:30:54.690Z,73.20
2022-12-14T14:36:25.173Z,71.12
2022-12-14T14:41:40.709Z,75.18
2022-12-14T14:46:48.158Z,72.26
2022-12-14T14:51:50.264Z,74.12
2022-12-14T14:56:53.117Z,72.62
2022-12-14T15:02:00.904Z,74.90
2022-12-14T15:07:07.526Z,75.31
2022-12-14T15:12:34.834Z,75.49
2022-12-14T15:17:36.672Z,76.48
2022-12-14T15:22:43.394Z,75.34
2022-12-14T15:27:48.579Z,74.93
2022-12-14T15:33:21.104Z,76.47
2022-12-14T15:38:27.717Z,77.47
2022-12-14T15:43:30.709Z,76.24
2022-12-14T15:48:35.171Z,75.77
2022-12-14T15:53:53.523Z,78.88
2022-12-14T15:59:01.190Z,76.62
2022-12-14T16:04:09.778Z,80.13
2022-12-14T16:09:19.615Z,79.30
2022-12-14T16:14:30.252Z,78.07
2022-12-14T16:19:57.611Z,80.15
2022-12-14T16:25:07.897Z,79.62
2022-12-14T16:30:21.896Z,79.92
2022-12-14T16:35:26.404Z,81.17
2022-12-14T16:40:32.098Z,85.13
2022-12-14T16:45:43.298Z,81.23
2022-12-14T16:50:57.017Z,79.31
2022-12-14T16:56:19.498Z,79.11
2022-12-14T17:01:25.342Z,82.39
2022-12-14T17:06:36.688Z,81.80
2022-12-14T17:11:40.189Z,79.98
2022-12-14T17:16:43.079Z,80.23
2022-12-14T17:21:45.112Z,81.47
2022-12-14T17:26:48.071Z,80.83
2022-12-14T17:31:52.899Z,79.67
2022-12-14T17:36:57.090Z,82.07
2022-12-14T17:42:00.677Z,82.45
2022-12-14T17:47:02.714Z,85.03
2022-12-14T17:52:07.955Z,81.98
2022-12-14T17:57:23.117Z,82.80
2022-12-14T18:02:32.830Z,81.50
2022-12-14T18:07:35.007Z,82.85
2022-12-14T18:12:36.920Z,81.68
2022-12-14T18:17:38.948Z,82.67
2022-12-14T18:22:41.035Z,82.91
2022-12-14T18:27:43.033Z,81.87
2022-12-14T18:32:46.132Z,82.95
2022-12-14T18:37:51.688Z,82.12
2022-12-14T18:42:56.508Z,81.13
2022-12-14T18:47:59.815Z,82.04
2022-12-14T18:53:05.031Z,81.78
2022-12-14T18:58:09.959Z,84.63
2022-12-14T19:03:15.457Z,83.48
2022-12-14T19:08:18.104Z,85.87
2022-12-14T19:13:26.148Z,85.04
2022-12-14T19:18:30.881Z,81.06
2022-12-14T19:23:33.269Z,82.19
2022-12-14T19:28:35.745Z,80.93
2022-12-14T19:33:40.966Z,84.52
2022-12-14T19:38:42.980Z,85.49
2022-12-14T19:43:47.634Z,84.51
2022-12-14T19:48:51.467Z,82.33
2022-12-14T19:53:55.210Z,86.82
2022-12-14T19:59:03.691Z,87.68
2022-12-14T20:04:06.356Z,84.79
2022-12-14T20:09:08.856Z,84.67
2022-12-14T20:14:12.573Z,86.94
2022-12-14T20:19:16.485Z,85.39
2022-12-14T20:24:21.301Z,82.95
2022-12-14T20:29:24.765Z,85.35
2022-12-14T20:34:29.137Z,81.50
2022-12-14T20:39:31.196Z,86.51
2022-12-14T20:44:33.101Z,86.78
2022-12-14T20:49:35.023Z,83.51
2022-12-14T20:54:36.967Z,84.93
2022-12-14T20:59:38.813Z,87.88
2022-12-14T21:04:40.576Z,89.15
2022-12-14T21:09:42.280Z,90.83
2022-12-14T21:14:48.105Z,90.56
2022-12-14T21:19:50.891Z,87.24
2022-12-14T21:25:08.259Z,85.30
2022-12-14T21:30:11.495Z,88.67
2022-12-14T21:35:17.807Z,89.01
2022-12-14T21:40:39.589Z,89.09
2022-12-14T21:45:41.528Z,89.72
2022-12-14T21:50:45.260Z,90.70
2022-12-14T21:55:51.669Z,91.07
2022-12-14T22:00:53.470Z,91.23
2022-12-14T22:05:55.258Z,91.82
2022-12-14T22:11:02.496Z,92.05
2022-12-14T22:16:07.623Z,90.80
2022-12-14T22:21:10.044Z,91.83
2022-12-14T22:26:11.906Z,91.12
2022-12-14T22:31:13.956Z,90.71
2022-12-14T22:36:16.244Z,88.06
2022-12-14T22:41:20.194Z,90.47
2022-12-14T22:46:23.543Z,91.16
2022-12-14T22:51:26.122Z,88.70
2022-12-14T22:56:34.203Z,85.36
2022-12-14T23:01:37.589Z,87.25
2022-12-14T23:06:40.969Z,89.10
2022-12-14T23:12:01.490Z,88.21
2022-12-14T23:17:22.502Z,90.07
2022-12-14T23:22:42.967Z,90.63
2022-12-14T23:28:03.527Z,88.53
2022-12-14T23:33:23.973Z,87.45
2022-12-14T23:38:44.623Z,84.68
2022-12-14T23:44:05.232Z,84.52
2022-12-14T23:49:25.981Z,83.18
2022-12-14T23:54:46.456Z,82.97
